sensor_id;sensor_type;location;lat;lon;timestamp;temperature;humidity
69031;DHT22;56083;48.774;8.942;2023-08-06T00:00:22;13.10;99.90
69031;DHT22;56083;48.774;8.942;2023-08-06T00:02:48;13.10;99.90
69031;DHT22;56083;48.774;8.942;2023-08-06T00:05:14;13.00;99.90
69031;DHT22;56083;48.774;8.942;2023-08-06T00:07:46;12.90;99.90
69031;DHT22;56083;48.774;8.942;2023-08-06T00:10:12;12.90;99.90
69031;DHT22;56083;48.774;8.942;2023-08-06T00:12:37;12.90;99.90
69031;DHT22;56083;48.774;8.942;2023-08-06T00:15:03;12.80;99.90
69031;DHT22;56083;48.774;8.942;2023-08-06T00:17:29;12.80;99.90
69031;DHT22;56083;48.774;8.942;2023-08-06T00:19:54;12.90;99.90
69031;DHT22;56083;48.774;8.942;2023-08-06T00:22:20;12.90;99.90
69031;DHT22;56083;48.774;8.942;2023-08-06T00:24:46;12.90;99.90
69031;DHT22;56083;48.774;8.942;2023-08-06T00:27:12;12.90;99.90
69031;DHT22;56083;48.774;8.942;2023-08-06T00:29:38;12.90;99.90
69031;DHT22;56083;48.774;8.942;2023-08-06T00:32:03;13.00;99.90
69031;DHT22;56083;48.774;8.942;2023-08-06T00:34:29;12.90;99.90
69031;DHT22;56083;48.774;8.942;2023-08-06T00:36:55;13.00;99.90
69031;DHT22;56083;48.774;8.942;2023-08-06T00:39:20;13.00;99.90
69031;DHT22;56083;48.774;8.942;2023-08-06T00:41:46;12.90;99.90
69031;DHT22;56083;48.774;8.942;2023-08-06T00:44:11;12.90;99.90
69031;DHT22;56083;48.774;8.942;2023-08-06T00:46:37;12.90;99.90
69031;DHT22;56083;48.774;8.942;2023-08-06T00:49:04;12.90;99.90
69031;DHT22;56083;48.774;8.942;2023-08-06T00:51:30;13.00;99.90
69031;DHT22;56083;48.774;8.942;2023-08-06T00:53:57;12.90;99.90
69031;DHT22;56083;48.774;8.942;2023-08-06T00:56:22;12.90;99.90
69031;DHT22;56083;48.774;8.942;2023-08-06T00:58:49;12.90;99.90
69031;DHT22;56083;48.774;8.942;2023-08-06T01:01:15;12.90;99.90
69031;DHT22;56083;48.774;8.942;2023-08-06T01:03:40;12.90;99.90
69031;DHT22;56083;48.774;8.942;2023-08-06T01:06:06;12.90;99.90
69031;DHT22;56083;48.774;8.942;2023-08-06T01:08:47;13.00;99.90
69031;DHT22;56083;48.774;8.942;2023-08-06T01:14:13;12.90;99.90
69031;DHT22;56083;48.774;8.942;2023-08-06T01:16:41;12.90;99.90
69031;DHT22;56083;48.774;8.942;2023-08-06T01:19:16;12.90;99.90
69031;DHT22;56083;48.774;8.942;2023-08-06T01:21:42;12.80;99.90
69031;DHT22;56083;48.774;8.942;2023-08-06T01:24:08;12.80;99.90
69031;DHT22;56083;48.774;8.942;2023-08-06T01:27:04;12.70;99.90
69031;DHT22;56083;48.774;8.942;2023-08-06T01:29:38;12.70;99.90
69031;DHT22;56083;48.774;8.942;2023-08-06T01:32:05;12.70;99.90
69031;DHT22;56083;48.774;8.942;2023-08-06T01:34:33;12.70;99.90
69031;DHT22;56083;48.774;8.942;2023-08-06T01:37:00;12.70;99.90
69031;DHT22;56083;48.774;8.942;2023-08-06T01:39:27;12.80;99.90
69031;DHT22;56083;48.774;8.942;2023-08-06T01:41:52;12.80;99.90
69031;DHT22;56083;48.774;8.942;2023-08-06T01:44:18;12.90;99.90
69031;DHT22;56083;48.774;8.942;2023-08-06T01:46:44;12.90;99.90
69031;DHT22;56083;48.774;8.942;2023-08-06T01:49:09;12.80;99.90
69031;DHT22;56083;48.774;8.942;2023-08-06T01:51:35;12.80;99.90
69031;DHT22;56083;48.774;8.942;2023-08-06T01:54:00;12.80;99.90
69031;DHT22;56083;48.774;8.942;2023-08-06T01:56:26;12.80;99.90
69031;DHT22;56083;48.774;8.942;2023-08-06T01:58:52;12.80;99.90
69031;DHT22;56083;48.774;8.942;2023-08-06T02:01:17;12.80;99.90
69031;DHT22;56083;48.774;8.942;2023-08-06T02:03:43;12.80;99.90
69031;DHT22;56083;48.774;8.942;2023-08-06T02:06:08;12.70;99.90
69031;DHT22;56083;48.774;8.942;2023-08-06T02:08:34;12.70;99.90
69031;DHT22;56083;48.774;8.942;2023-08-06T02:11:00;12.70;99.90
69031;DHT22;56083;48.774;8.942;2023-08-06T02:13:26;12.60;99.90
69031;DHT22;56083;48.774;8.942;2023-08-06T02:15:51;12.60;99.90
69031;DHT22;56083;48.774;8.942;2023-08-06T02:18:17;12.50;99.90
69031;DHT22;56083;48.774;8.942;2023-08-06T02:20:43;12.50;99.90
69031;DHT22;56083;48.774;8.942;2023-08-06T02:23:09;12.40;99.90
69031;DHT22;56083;48.774;8.942;2023-08-06T02:25:35;12.40;99.90
69031;DHT22;56083;48.774;8.942;2023-08-06T02:28:00;12.50;99.90
69031;DHT22;56083;48.774;8.942;2023-08-06T02:30:26;12.50;99.90
69031;DHT22;56083;48.774;8.942;2023-08-06T02:32:52;12.50;99.90
69031;DHT22;56083;48.774;8.942;2023-08-06T02:35:17;12.60;99.90
69031;DHT22;56083;48.774;8.942;2023-08-06T02:37:43;12.60;99.90
69031;DHT22;56083;48.774;8.942;2023-08-06T02:40:09;12.70;99.90
69031;DHT22;56083;48.774;8.942;2023-08-06T02:42:35;12.60;99.90
69031;DHT22;56083;48.774;8.942;2023-08-06T02:45:00;12.70;99.90
69031;DHT22;56083;48.774;8.942;2023-08-06T02:47:26;12.70;99.90
69031;DHT22;56083;48.774;8.942;2023-08-06T02:49:51;12.70;99.90
69031;DHT22;56083;48.774;8.942;2023-08-06T02:52:18;12.80;99.90
69031;DHT22;56083;48.774;8.942;2023-08-06T02:54:44;12.80;99.90
69031;DHT22;56083;48.774;8.942;2023-08-06T02:57:09;12.90;99.90
69031;DHT22;56083;48.774;8.942;2023-08-06T02:59:35;13.00;99.90
69031;DHT22;56083;48.774;8.942;2023-08-06T03:02:01;13.10;99.90
69031;DHT22;56083;48.774;8.942;2023-08-06T03:04:26;13.30;99.90
69031;DHT22;56083;48.774;8.942;2023-08-06T03:06:52;13.30;99.90
69031;DHT22;56083;48.774;8.942;2023-08-06T03:09:18;13.40;99.90
69031;DHT22;56083;48.774;8.942;2023-08-06T03:11:43;13.40;99.90
69031;DHT22;56083;48.774;8.942;2023-08-06T03:14:09;13.40;99.90
69031;DHT22;56083;48.774;8.942;2023-08-06T03:16:35;13.40;99.90
69031;DHT22;56083;48.774;8.942;2023-08-06T03:19:00;13.40;99.90
69031;DHT22;56083;48.774;8.942;2023-08-06T03:21:26;13.40;99.90
69031;DHT22;56083;48.774;8.942;2023-08-06T03:23:52;13.30;99.90
69031;DHT22;56083;48.774;8.942;2023-08-06T03:26:17;13.20;99.90
69031;DHT22;56083;48.774;8.942;2023-08-06T03:28:43;13.20;99.90
69031;DHT22;56083;48.774;8.942;2023-08-06T03:31:08;13.10;99.90
69031;DHT22;56083;48.774;8.942;2023-08-06T03:33:34;13.10;99.90
69031;DHT22;56083;48.774;8.942;2023-08-06T03:36:00;13.10;99.90
69031;DHT22;56083;48.774;8.942;2023-08-06T03:38:25;13.00;99.90
69031;DHT22;56083;48.774;8.942;2023-08-06T03:40:51;13.10;99.90
69031;DHT22;56083;48.774;8.942;2023-08-06T03:43:17;13.10;99.90
69031;DHT22;56083;48.774;8.942;2023-08-06T03:45:42;13.00;99.90
69031;DHT22;56083;48.774;8.942;2023-08-06T03:48:08;13.00;99.90
69031;DHT22;56083;48.774;8.942;2023-08-06T03:50:34;13.00;99.90
69031;DHT22;56083;48.774;8.942;2023-08-06T03:52:59;12.90;99.90
69031;DHT22;56083;48.774;8.942;2023-08-06T03:55:25;12.90;99.90
69031;DHT22;56083;48.774;8.942;2023-08-06T03:57:51;12.80;99.90
69031;DHT22;56083;48.774;8.942;2023-08-06T04:00:16;12.80;99.90
69031;DHT22;56083;48.774;8.942;2023-08-06T04:02:42;12.80;99.90
69031;DHT22;56083;48.774;8.942;2023-08-06T04:05:08;12.80;99.90
69031;DHT22;56083;48.774;8.942;2023-08-06T04:07:34;12.80;99.90
69031;DHT22;56083;48.774;8.942;2023-08-06T04:10:03;12.80;99.90
69031;DHT22;56083;48.774;8.942;2023-08-06T04:12:29;12.80;99.90
69031;DHT22;56083;48.774;8.942;2023-08-06T04:14:57;12.70;99.90
69031;DHT22;56083;48.774;8.942;2023-08-06T04:17:22;12.80;99.90
69031;DHT22;56083;48.774;8.942;2023-08-06T04:19:53;12.80;99.90
69031;DHT22;56083;48.774;8.942;2023-08-06T04:22:20;12.80;99.90
69031;DHT22;56083;48.774;8.942;2023-08-06T04:24:46;12.80;99.90
69031;DHT22;56083;48.774;8.942;2023-08-06T04:27:12;12.90;99.90
69031;DHT22;56083;48.774;8.942;2023-08-06T04:29:38;12.90;99.90
69031;DHT22;56083;48.774;8.942;2023-08-06T04:32:06;12.90;99.90
69031;DHT22;56083;48.774;8.942;2023-08-06T04:34:32;12.90;99.90
69031;DHT22;56083;48.774;8.942;2023-08-06T04:36:58;12.90;99.90
69031;DHT22;56083;48.774;8.942;2023-08-06T04:39:23;12.90;99.90
69031;DHT22;56083;48.774;8.942;2023-08-06T04:41:49;12.90;99.90
69031;DHT22;56083;48.774;8.942;2023-08-06T04:44:14;12.90;99.90
69031;DHT22;56083;48.774;8.942;2023-08-06T04:46:40;12.90;99.90
69031;DHT22;56083;48.774;8.942;2023-08-06T04:49:06;12.90;99.90
69031;DHT22;56083;48.774;8.942;2023-08-06T04:51:31;12.90;99.90
69031;DHT22;56083;48.774;8.942;2023-08-06T04:53:57;12.90;99.90
69031;DHT22;56083;48.774;8.942;2023-08-06T04:56:23;12.90;99.90
69031;DHT22;56083;48.774;8.942;2023-08-06T04:58:49;13.00;99.90
69031;DHT22;56083;48.774;8.942;2023-08-06T05:01:15;13.10;99.90
69031;DHT22;56083;48.774;8.942;2023-08-06T05:03:40;13.10;99.90
69031;DHT22;56083;48.774;8.942;2023-08-06T05:06:06;13.20;99.90
69031;DHT22;56083;48.774;8.942;2023-08-06T05:08:31;13.30;99.90
69031;DHT22;56083;48.774;8.942;2023-08-06T05:10:57;13.40;99.90
69031;DHT22;56083;48.774;8.942;2023-08-06T05:13:23;13.40;99.90
69031;DHT22;56083;48.774;8.942;2023-08-06T05:15:48;13.50;99.90
69031;DHT22;56083;48.774;8.942;2023-08-06T05:18:14;13.60;99.90
69031;DHT22;56083;48.774;8.942;2023-08-06T05:20:41;13.70;99.90
69031;DHT22;56083;48.774;8.942;2023-08-06T05:23:07;13.80;99.90
69031;DHT22;56083;48.774;8.942;2023-08-06T05:25:39;13.80;99.90
69031;DHT22;56083;48.774;8.942;2023-08-06T05:28:05;13.80;99.90
69031;DHT22;56083;48.774;8.942;2023-08-06T05:30:31;13.90;99.90
69031;DHT22;56083;48.774;8.942;2023-08-06T05:32:56;13.90;99.90
69031;DHT22;56083;48.774;8.942;2023-08-06T05:35:22;13.90;99.90
69031;DHT22;56083;48.774;8.942;2023-08-06T05:37:49;13.90;99.90
69031;DHT22;56083;48.774;8.942;2023-08-06T05:40:15;13.90;99.90
69031;DHT22;56083;48.774;8.942;2023-08-06T05:42:41;13.80;99.90
69031;DHT22;56083;48.774;8.942;2023-08-06T05:45:07;13.80;99.90
69031;DHT22;56083;48.774;8.942;2023-08-06T05:47:33;13.80;99.90
69031;DHT22;56083;48.774;8.942;2023-08-06T05:49:58;13.80;99.90
69031;DHT22;56083;48.774;8.942;2023-08-06T05:52:24;13.70;99.90
69031;DHT22;56083;48.774;8.942;2023-08-06T05:54:49;13.60;99.90
69031;DHT22;56083;48.774;8.942;2023-08-06T05:57:15;13.50;99.90
69031;DHT22;56083;48.774;8.942;2023-08-06T05:59:42;13.40;99.90
69031;DHT22;56083;48.774;8.942;2023-08-06T06:02:07;13.30;99.90
69031;DHT22;56083;48.774;8.942;2023-08-06T06:04:33;13.20;99.90
69031;DHT22;56083;48.774;8.942;2023-08-06T06:06:59;13.20;99.90
69031;DHT22;56083;48.774;8.942;2023-08-06T06:09:24;13.20;99.90
69031;DHT22;56083;48.774;8.942;2023-08-06T06:11:50;13.20;99.90
69031;DHT22;56083;48.774;8.942;2023-08-06T06:14:19;13.30;99.90
69031;DHT22;56083;48.774;8.942;2023-08-06T06:16:45;13.30;99.90
69031;DHT22;56083;48.774;8.942;2023-08-06T06:19:11;13.30;99.90
69031;DHT22;56083;48.774;8.942;2023-08-06T06:21:37;13.30;99.90
69031;DHT22;56083;48.774;8.942;2023-08-06T06:24:04;13.30;99.90
69031;DHT22;56083;48.774;8.942;2023-08-06T06:26:30;13.30;99.90
69031;DHT22;56083;48.774;8.942;2023-08-06T06:28:56;13.30;99.90
69031;DHT22;56083;48.774;8.942;2023-08-06T06:31:22;13.40;99.90
69031;DHT22;56083;48.774;8.942;2023-08-06T06:33:48;13.60;99.90
69031;DHT22;56083;48.774;8.942;2023-08-06T06:36:14;13.70;99.90
69031;DHT22;56083;48.774;8.942;2023-08-06T06:38:39;13.80;99.90
69031;DHT22;56083;48.774;8.942;2023-08-06T06:41:05;13.90;99.90
69031;DHT22;56083;48.774;8.942;2023-08-06T06:43:31;13.90;99.90
69031;DHT22;56083;48.774;8.942;2023-08-06T06:45:58;13.90;99.90
69031;DHT22;56083;48.774;8.942;2023-08-06T06:48:31;13.80;99.90
69031;DHT22;56083;48.774;8.942;2023-08-06T06:50:57;13.80;99.90
69031;DHT22;56083;48.774;8.942;2023-08-06T06:53:23;13.80;99.90
69031;DHT22;56083;48.774;8.942;2023-08-06T06:55:53;13.80;99.90
69031;DHT22;56083;48.774;8.942;2023-08-06T06:58:22;13.80;99.90
69031;DHT22;56083;48.774;8.942;2023-08-06T07:00:48;13.80;99.90
69031;DHT22;56083;48.774;8.942;2023-08-06T07:03:15;13.70;99.90
69031;DHT22;56083;48.774;8.942;2023-08-06T07:05:41;13.70;99.90
69031;DHT22;56083;48.774;8.942;2023-08-06T07:08:07;13.50;99.90
69031;DHT22;56083;48.774;8.942;2023-08-06T07:10:33;13.50;99.90
69031;DHT22;56083;48.774;8.942;2023-08-06T07:12:58;13.40;99.90
69031;DHT22;56083;48.774;8.942;2023-08-06T07:15:24;13.40;99.90
69031;DHT22;56083;48.774;8.942;2023-08-06T07:17:50;13.40;99.90
69031;DHT22;56083;48.774;8.942;2023-08-06T07:20:15;13.40;99.90
69031;DHT22;56083;48.774;8.942;2023-08-06T07:22:41;13.40;99.90
69031;DHT22;56083;48.774;8.942;2023-08-06T07:25:07;13.40;99.90
69031;DHT22;56083;48.774;8.942;2023-08-06T07:27:34;13.50;99.90
69031;DHT22;56083;48.774;8.942;2023-08-06T07:30:00;13.50;99.90
69031;DHT22;56083;48.774;8.942;2023-08-06T07:32:26;13.50;99.90
69031;DHT22;56083;48.774;8.942;2023-08-06T07:34:52;13.50;99.90
69031;DHT22;56083;48.774;8.942;2023-08-06T07:37:26;13.50;99.90
69031;DHT22;56083;48.774;8.942;2023-08-06T07:39:58;13.50;99.90
69031;DHT22;56083;48.774;8.942;2023-08-06T07:42:24;13.40;99.90
69031;DHT22;56083;48.774;8.942;2023-08-06T07:44:58;13.40;99.90
69031;DHT22;56083;48.774;8.942;2023-08-06T07:47:24;13.40;99.90
69031;DHT22;56083;48.774;8.942;2023-08-06T07:49:49;13.50;99.90
69031;DHT22;56083;48.774;8.942;2023-08-06T07:52:15;13.60;99.90
69031;DHT22;56083;48.774;8.942;2023-08-06T07:54:41;13.70;99.90
69031;DHT22;56083;48.774;8.942;2023-08-06T07:57:07;13.90;99.90
69031;DHT22;56083;48.774;8.942;2023-08-06T07:59:32;14.10;99.90
69031;DHT22;56083;48.774;8.942;2023-08-06T08:01:58;14.30;99.90
69031;DHT22;56083;48.774;8.942;2023-08-06T08:04:24;14.50;99.90
69031;DHT22;56083;48.774;8.942;2023-08-06T08:06:50;14.60;99.90
69031;DHT22;56083;48.774;8.942;2023-08-06T08:09:15;14.50;99.90
69031;DHT22;56083;48.774;8.942;2023-08-06T08:11:42;14.60;99.90
69031;DHT22;56083;48.774;8.942;2023-08-06T08:14:07;14.50;99.90
69031;DHT22;56083;48.774;8.942;2023-08-06T08:16:33;14.70;99.90
69031;DHT22;56083;48.774;8.942;2023-08-06T08:18:59;14.80;99.90
69031;DHT22;56083;48.774;8.942;2023-08-06T08:21:26;15.00;99.90
69031;DHT22;56083;48.774;8.942;2023-08-06T08:23:51;15.10;99.90
69031;DHT22;56083;48.774;8.942;2023-08-06T08:26:17;15.10;99.90
69031;DHT22;56083;48.774;8.942;2023-08-06T08:28:43;14.90;99.90
69031;DHT22;56083;48.774;8.942;2023-08-06T08:31:09;14.80;99.90
69031;DHT22;56083;48.774;8.942;2023-08-06T08:33:37;14.80;99.90
69031;DHT22;56083;48.774;8.942;2023-08-06T08:36:02;15.00;99.90
69031;DHT22;56083;48.774;8.942;2023-08-06T08:38:28;15.00;99.90
69031;DHT22;56083;48.774;8.942;2023-08-06T08:40:54;15.00;99.90
69031;DHT22;56083;48.774;8.942;2023-08-06T08:43:23;15.20;99.90
69031;DHT22;56083;48.774;8.942;2023-08-06T08:45:51;15.40;99.90
69031;DHT22;56083;48.774;8.942;2023-08-06T08:48:18;15.40;99.90
69031;DHT22;56083;48.774;8.942;2023-08-06T08:50:46;15.30;99.90
69031;DHT22;56083;48.774;8.942;2023-08-06T08:53:14;15.20;99.90
69031;DHT22;56083;48.774;8.942;2023-08-06T08:55:43;15.00;99.90
69031;DHT22;56083;48.774;8.942;2023-08-06T08:58:10;14.90;99.90
69031;DHT22;56083;48.774;8.942;2023-08-06T09:00:36;15.00;99.90
69031;DHT22;56083;48.774;8.942;2023-08-06T09:03:06;15.00;99.90
69031;DHT22;56083;48.774;8.942;2023-08-06T09:05:32;15.10;99.90
69031;DHT22;56083;48.774;8.942;2023-08-06T09:08:11;15.10;99.90
69031;DHT22;56083;48.774;8.942;2023-08-06T09:10:37;15.10;99.90
69031;DHT22;56083;48.774;8.942;2023-08-06T09:13:04;15.10;99.90
69031;DHT22;56083;48.774;8.942;2023-08-06T09:15:30;15.10;99.90
69031;DHT22;56083;48.774;8.942;2023-08-06T09:17:56;15.10;99.90
69031;DHT22;56083;48.774;8.942;2023-08-06T09:20:22;15.10;99.90
69031;DHT22;56083;48.774;8.942;2023-08-06T09:22:48;15.20;99.90
69031;DHT22;56083;48.774;8.942;2023-08-06T09:25:24;15.30;99.90
69031;DHT22;56083;48.774;8.942;2023-08-06T09:27:51;15.30;99.90
69031;DHT22;56083;48.774;8.942;2023-08-06T09:30:34;15.40;99.90
69031;DHT22;56083;48.774;8.942;2023-08-06T09:33:00;15.50;99.90
69031;DHT22;56083;48.774;8.942;2023-08-06T09:35:30;15.60;99.90
69031;DHT22;56083;48.774;8.942;2023-08-06T09:38:06;15.70;99.90
69031;DHT22;56083;48.774;8.942;2023-08-06T09:40:33;15.70;99.90
69031;DHT22;56083;48.774;8.942;2023-08-06T09:42:59;15.80;99.90
69031;DHT22;56083;48.774;8.942;2023-08-06T09:45:33;15.70;99.90
69031;DHT22;56083;48.774;8.942;2023-08-06T09:48:00;15.50;99.90
69031;DHT22;56083;48.774;8.942;2023-08-06T09:50:32;15.10;99.90
69031;DHT22;56083;48.774;8.942;2023-08-06T09:52:58;14.90;99.90
69031;DHT22;56083;48.774;8.942;2023-08-06T09:55:25;14.70;99.90
69031;DHT22;56083;48.774;8.942;2023-08-06T09:57:52;14.50;99.90
69031;DHT22;56083;48.774;8.942;2023-08-06T10:00:18;14.50;99.90
69031;DHT22;56083;48.774;8.942;2023-08-06T10:02:45;14.50;99.90
69031;DHT22;56083;48.774;8.942;2023-08-06T10:05:11;14.70;99.90
69031;DHT22;56083;48.774;8.942;2023-08-06T10:07:37;15.00;99.90
69031;DHT22;56083;48.774;8.942;2023-08-06T10:10:05;15.10;99.90
69031;DHT22;56083;48.774;8.942;2023-08-06T10:12:49;14.90;99.90
69031;DHT22;56083;48.774;8.942;2023-08-06T10:15:34;14.80;99.90
69031;DHT22;56083;48.774;8.942;2023-08-06T10:18:01;14.80;99.90
69031;DHT22;56083;48.774;8.942;2023-08-06T10:20:33;14.90;99.90
69031;DHT22;56083;48.774;8.942;2023-08-06T10:23:06;15.40;99.90
69031;DHT22;56083;48.774;8.942;2023-08-06T10:25:34;15.70;99.90
69031;DHT22;56083;48.774;8.942;2023-08-06T10:28:01;15.70;99.90
69031;DHT22;56083;48.774;8.942;2023-08-06T10:30:33;15.40;99.90
69031;DHT22;56083;48.774;8.942;2023-08-06T10:33:02;15.20;99.90
69031;DHT22;56083;48.774;8.942;2023-08-06T10:35:35;15.10;99.90
69031;DHT22;56083;48.774;8.942;2023-08-06T10:38:12;15.10;99.90
69031;DHT22;56083;48.774;8.942;2023-08-06T10:43:31;14.90;99.90
69031;DHT22;56083;48.774;8.942;2023-08-06T10:45:59;14.80;99.90
69031;DHT22;56083;48.774;8.942;2023-08-06T10:48:45;14.70;99.90
69031;DHT22;56083;48.774;8.942;2023-08-06T10:51:13;14.80;99.90
69031;DHT22;56083;48.774;8.942;2023-08-06T10:53:43;14.80;99.90
69031;DHT22;56083;48.774;8.942;2023-08-06T10:58:45;15.00;99.90
69031;DHT22;56083;48.774;8.942;2023-08-06T11:01:12;15.10;99.90
69031;DHT22;56083;48.774;8.942;2023-08-06T11:03:38;15.10;99.90
69031;DHT22;56083;48.774;8.942;2023-08-06T11:06:06;15.10;99.90
69031;DHT22;56083;48.774;8.942;2023-08-06T11:08:36;15.00;99.90
69031;DHT22;56083;48.774;8.942;2023-08-06T11:11:11;14.80;99.90
69031;DHT22;56083;48.774;8.942;2023-08-06T11:13:41;14.70;99.90
69031;DHT22;56083;48.774;8.942;2023-08-06T11:16:08;14.80;99.90
69031;DHT22;56083;48.774;8.942;2023-08-06T11:18:34;14.90;99.90
69031;DHT22;56083;48.774;8.942;2023-08-06T11:21:01;15.10;99.90
69031;DHT22;56083;48.774;8.942;2023-08-06T11:23:30;15.10;99.90
69031;DHT22;56083;48.774;8.942;2023-08-06T11:25:59;15.00;99.90
69031;DHT22;56083;48.774;8.942;2023-08-06T11:28:25;14.70;99.90
69031;DHT22;56083;48.774;8.942;2023-08-06T11:30:51;14.70;99.90
69031;DHT22;56083;48.774;8.942;2023-08-06T11:33:26;14.70;99.90
69031;DHT22;56083;48.774;8.942;2023-08-06T11:35:54;14.90;99.90
69031;DHT22;56083;48.774;8.942;2023-08-06T11:38:20;14.90;99.90
69031;DHT22;56083;48.774;8.942;2023-08-06T11:40:47;14.80;99.90
69031;DHT22;56083;48.774;8.942;2023-08-06T11:43:13;14.60;99.90
69031;DHT22;56083;48.774;8.942;2023-08-06T11:45:39;14.40;99.90
69031;DHT22;56083;48.774;8.942;2023-08-06T11:48:06;14.40;99.90
69031;DHT22;56083;48.774;8.942;2023-08-06T11:50:37;14.30;99.90
69031;DHT22;56083;48.774;8.942;2023-08-06T11:53:04;14.20;99.90
69031;DHT22;56083;48.774;8.942;2023-08-06T11:55:30;14.30;99.90
69031;DHT22;56083;48.774;8.942;2023-08-06T11:57:57;14.30;99.90
69031;DHT22;56083;48.774;8.942;2023-08-06T12:00:24;14.30;99.90
69031;DHT22;56083;48.774;8.942;2023-08-06T12:02:51;14.40;99.90
69031;DHT22;56083;48.774;8.942;2023-08-06T12:05:22;14.40;99.90
69031;DHT22;56083;48.774;8.942;2023-08-06T12:07:59;14.40;99.90
69031;DHT22;56083;48.774;8.942;2023-08-06T12:10:26;14.30;99.90
69031;DHT22;56083;48.774;8.942;2023-08-06T12:12:52;14.40;99.90
69031;DHT22;56083;48.774;8.942;2023-08-06T12:15:18;14.40;99.90
69031;DHT22;56083;48.774;8.942;2023-08-06T12:17:44;14.50;99.90
69031;DHT22;56083;48.774;8.942;2023-08-06T12:20:10;14.50;99.90
69031;DHT22;56083;48.774;8.942;2023-08-06T12:22:37;14.60;99.90
69031;DHT22;56083;48.774;8.942;2023-08-06T12:25:05;15.00;99.90
69031;DHT22;56083;48.774;8.942;2023-08-06T12:27:37;15.50;99.90
69031;DHT22;56083;48.774;8.942;2023-08-06T12:30:03;15.40;99.90
69031;DHT22;56083;48.774;8.942;2023-08-06T12:32:29;15.70;99.90
69031;DHT22;56083;48.774;8.942;2023-08-06T12:34:55;16.00;99.90
69031;DHT22;56083;48.774;8.942;2023-08-06T12:37:20;16.00;99.90
69031;DHT22;56083;48.774;8.942;2023-08-06T12:39:46;15.80;99.90
69031;DHT22;56083;48.774;8.942;2023-08-06T12:42:12;15.80;99.90
69031;DHT22;56083;48.774;8.942;2023-08-06T12:44:37;15.60;99.90
69031;DHT22;56083;48.774;8.942;2023-08-06T12:47:03;15.40;99.90
69031;DHT22;56083;48.774;8.942;2023-08-06T12:49:29;15.10;99.90
69031;DHT22;56083;48.774;8.942;2023-08-06T12:51:56;14.90;99.90
69031;DHT22;56083;48.774;8.942;2023-08-06T12:54:23;14.70;99.90
69031;DHT22;56083;48.774;8.942;2023-08-06T12:56:49;14.90;99.90
69031;DHT22;56083;48.774;8.942;2023-08-06T12:59:17;15.00;99.90
69031;DHT22;56083;48.774;8.942;2023-08-06T13:01:43;15.10;99.90
69031;DHT22;56083;48.774;8.942;2023-08-06T13:04:09;15.30;99.90
69031;DHT22;56083;48.774;8.942;2023-08-06T13:06:36;15.50;99.90
69031;DHT22;56083;48.774;8.942;2023-08-06T13:09:11;15.70;99.90
69031;DHT22;56083;48.774;8.942;2023-08-06T13:11:39;15.90;99.90
69031;DHT22;56083;48.774;8.942;2023-08-06T13:14:07;16.20;99.90
69031;DHT22;56083;48.774;8.942;2023-08-06T13:16:33;16.10;99.90
69031;DHT22;56083;48.774;8.942;2023-08-06T13:18:59;16.10;99.90
69031;DHT22;56083;48.774;8.942;2023-08-06T13:21:24;16.10;99.90
69031;DHT22;56083;48.774;8.942;2023-08-06T13:23:50;16.00;99.90
69031;DHT22;56083;48.774;8.942;2023-08-06T13:26:16;16.00;99.90
69031;DHT22;56083;48.774;8.942;2023-08-06T13:28:42;15.80;99.90
69031;DHT22;56083;48.774;8.942;2023-08-06T13:31:08;15.70;99.90
69031;DHT22;56083;48.774;8.942;2023-08-06T13:33:33;15.50;99.90
69031;DHT22;56083;48.774;8.942;2023-08-06T13:35:59;15.50;99.90
69031;DHT22;56083;48.774;8.942;2023-08-06T13:38:24;15.40;99.90
69031;DHT22;56083;48.774;8.942;2023-08-06T13:40:50;15.50;99.90
69031;DHT22;56083;48.774;8.942;2023-08-06T13:43:16;15.70;99.90
69031;DHT22;56083;48.774;8.942;2023-08-06T13:45:44;15.70;99.90
69031;DHT22;56083;48.774;8.942;2023-08-06T13:48:10;15.90;99.90
69031;DHT22;56083;48.774;8.942;2023-08-06T13:50:36;16.00;99.90
69031;DHT22;56083;48.774;8.942;2023-08-06T13:53:02;16.10;99.90
69031;DHT22;56083;48.774;8.942;2023-08-06T13:55:28;16.20;99.90
69031;DHT22;56083;48.774;8.942;2023-08-06T13:57:54;16.40;99.90
69031;DHT22;56083;48.774;8.942;2023-08-06T14:00:20;16.60;99.90
69031;DHT22;56083;48.774;8.942;2023-08-06T14:02:45;16.60;99.90
69031;DHT22;56083;48.774;8.942;2023-08-06T14:05:13;16.70;99.90
69031;DHT22;56083;48.774;8.942;2023-08-06T14:07:40;17.10;99.90
69031;DHT22;56083;48.774;8.942;2023-08-06T14:10:06;17.70;99.90
69031;DHT22;56083;48.774;8.942;2023-08-06T14:12:32;17.90;99.90
69031;DHT22;56083;48.774;8.942;2023-08-06T14:14:58;17.70;99.90
69031;DHT22;56083;48.774;8.942;2023-08-06T14:17:24;18.00;99.90
69031;DHT22;56083;48.774;8.942;2023-08-06T14:19:50;19.00;99.90
69031;DHT22;56083;48.774;8.942;2023-08-06T14:22:15;19.80;99.90
69031;DHT22;56083;48.774;8.942;2023-08-06T14:24:41;19.60;99.90
69031;DHT22;56083;48.774;8.942;2023-08-06T14:27:07;18.70;99.90
69031;DHT22;56083;48.774;8.942;2023-08-06T14:29:33;17.90;99.90
69031;DHT22;56083;48.774;8.942;2023-08-06T14:31:58;17.00;99.90
69031;DHT22;56083;48.774;8.942;2023-08-06T14:34:24;16.30;99.90
69031;DHT22;56083;48.774;8.942;2023-08-06T14:36:49;15.30;99.90
69031;DHT22;56083;48.774;8.942;2023-08-06T14:39:15;14.90;99.90
69031;DHT22;56083;48.774;8.942;2023-08-06T14:41:41;14.90;99.90
69031;DHT22;56083;48.774;8.942;2023-08-06T14:44:06;14.80;99.90
69031;DHT22;56083;48.774;8.942;2023-08-06T14:46:33;14.60;99.90
69031;DHT22;56083;48.774;8.942;2023-08-06T14:48:58;14.50;99.90
69031;DHT22;56083;48.774;8.942;2023-08-06T14:51:24;14.50;99.90
69031;DHT22;56083;48.774;8.942;2023-08-06T14:53:50;14.40;99.90
69031;DHT22;56083;48.774;8.942;2023-08-06T14:56:15;14.50;99.90
69031;DHT22;56083;48.774;8.942;2023-08-06T14:58:41;14.60;99.90
69031;DHT22;56083;48.774;8.942;2023-08-06T15:01:07;14.80;99.90
69031;DHT22;56083;48.774;8.942;2023-08-06T15:03:33;15.50;99.90
69031;DHT22;56083;48.774;8.942;2023-08-06T15:05:59;17.30;99.90
69031;DHT22;56083;48.774;8.942;2023-08-06T15:08:24;19.10;99.90
69031;DHT22;56083;48.774;8.942;2023-08-06T15:10:53;20.00;99.90
69031;DHT22;56083;48.774;8.942;2023-08-06T15:13:19;20.20;99.90
69031;DHT22;56083;48.774;8.942;2023-08-06T15:15:49;20.80;99.90
69031;DHT22;56083;48.774;8.942;2023-08-06T15:18:16;20.60;99.90
69031;DHT22;56083;48.774;8.942;2023-08-06T15:20:42;19.40;99.90
69031;DHT22;56083;48.774;8.942;2023-08-06T15:23:07;19.00;99.90
69031;DHT22;56083;48.774;8.942;2023-08-06T15:25:33;18.50;99.90
69031;DHT22;56083;48.774;8.942;2023-08-06T15:27:58;17.60;99.90
69031;DHT22;56083;48.774;8.942;2023-08-06T15:30:24;16.80;99.90
69031;DHT22;56083;48.774;8.942;2023-08-06T15:32:50;16.40;99.90
69031;DHT22;56083;48.774;8.942;2023-08-06T15:35:16;16.10;99.90